Time;durP1;ratioP1;P1;durP2;ratioP2;P2;SDS_P1;SDS_P2;PMS_P1;PMS_P2;Temp;Humidity;BMP_temperature;BMP_pressure;BME280_temperature;BME280_humidity;BME280_pressure;Samples;Min_cycle;Max_cycle;Signal;HPM_P1;HPM_P2
2022/11/26 00:01:41;;;;;;;75.38;24.50;;;12.70;61.10;;;;;;4915902;29;20432;-83
2022/11/26 00:04:08;;;;;;;71.07;23.98;;;12.90;61.00;;;;;;4909596;29;20036;-83
2022/11/26 00:06:40;;;;;;;56.75;22.60;;;12.70;61.40;;;;;;4938610;29;20468;-84
2022/11/26 00:09:12;;;;;;;91.18;23.50;;;12.60;61.10;;;;;;4912338;29;20370;-82
2022/11/26 00:11:38;;;;;;;85.68;25.05;;;12.30;62.20;;;;;;4925115;29;20027;-83
2022/11/26 00:14:13;;;;;;;54.50;22.02;;;12.40;61.90;;;;;;4925820;29;20023;-83
2022/11/26 00:16:39;;;;;;;80.93;24.10;;;12.50;61.00;;;;;;4933643;29;20140;-81
2022/11/26 00:19:05;;;;;;;72.03;24.10;;;12.40;62.50;;;;;;4931153;29;20455;-83
2022/11/26 00:21:33;;;;;;;74.18;23.35;;;12.70;61.30;;;;;;4925351;29;20028;-84
2022/11/26 00:24:01;;;;;;;77.32;24.75;;;13.00;60.70;;;;;;4940496;29;20550;-83
2022/11/26 00:26:27;;;;;;;72.35;23.90;;;13.20;60.30;;;;;;4925615;29;20087;-82
2022/11/26 00:28:56;;;;;;;79.28;25.58;;;13.40;60.00;;;;;;4925735;29;20020;-84
2022/11/26 00:31:22;;;;;;;75.20;23.63;;;13.60;59.50;;;;;;4925553;29;20023;-83
2022/11/26 00:33:48;;;;;;;61.50;22.02;;;13.70;59.20;;;;;;4921144;29;20024;-82
2022/11/26 00:36:24;;;;;;;66.22;24.42;;;13.60;58.90;;;;;;4925596;29;20101;-82
2022/11/26 00:39:10;;;;;;;67.05;24.92;;;13.60;58.90;;;;;;4925260;29;20034;-82
2022/11/26 00:41:37;;;;;;;74.10;25.40;;;13.60;59.20;;;;;;4938342;29;20107;-82
2022/11/26 00:44:12;;;;;;;58.55;22.50;;;13.40;59.10;;;;;;4938363;29;20020;-82
2022/11/26 00:46:37;;;;;;;70.28;25.00;;;12.70;60.50;;;;;;4937568;29;20381;-81
2022/11/26 00:49:03;;;;;;;88.68;25.85;;;11.90;62.30;;;;;;4924532;29;20455;-82
2022/11/26 00:51:29;;;;;;;77.40;24.55;;;12.00;62.40;;;;;;4912727;29;20498;-82
2022/11/26 00:53:58;;;;;;;73.95;23.98;;;12.20;61.70;;;;;;4939782;29;20066;-81
2022/11/26 00:56:25;;;;;;;87.95;27.02;;;12.20;62.40;;;;;;4924939;29;20086;-82
2022/11/26 00:58:50;;;;;;;68.15;24.15;;;12.50;62.00;;;;;;4924666;29;20039;-81
2022/11/26 01:01:22;;;;;;;55.17;22.27;;;12.70;61.10;;;;;;4942008;29;20027;-82
2022/11/26 01:03:47;;;;;;;59.92;22.08;;;12.20;61.90;;;;;;4921879;29;20076;-81
2022/11/26 01:06:31;;;;;;;66.55;23.58;;;12.10;62.30;;;;;;4914032;29;20040;-82
2022/11/26 01:08:57;;;;;;;106.63;24.25;;;11.80;63.40;;;;;;4938998;29;20050;-83
2022/11/26 01:11:23;;;;;;;70.18;23.50;;;12.10;62.30;;;;;;4925579;29;20440;-82
2022/11/26 01:13:52;;;;;;;86.85;24.83;;;12.30;62.20;;;;;;4919478;29;20023;-87
2022/11/26 01:16:27;;;;;;;64.43;23.42;;;12.50;61.30;;;;;;4921585;29;20074;-86
2022/11/26 01:18:55;;;;;;;51.55;21.13;;;12.60;60.90;;;;;;4906527;29;20031;-81
2022/11/26 01:21:25;;;;;;;43.40;19.70;;;12.60;60.40;;;;;;4921791;29;20079;-83
2022/11/26 01:23:51;;;;;;;43.58;18.70;;;12.50;60.30;;;;;;4917607;29;20023;-82
2022/11/26 01:26:20;;;;;;;39.05;18.15;;;12.20;60.60;;;;;;4919997;29;20043;-82
2022/11/26 01:28:46;;;;;;;41.20;18.15;;;12.00;61.30;;;;;;4904158;29;20024;-82
2022/11/26 01:31:24;;;;;;;45.63;19.55;;;11.70;61.70;;;;;;4921615;29;20024;-81
2022/11/26 01:33:51;;;;;;;46.38;18.77;;;11.80;61.80;;;;;;4902842;29;20027;-81
2022/11/26 01:36:33;;;;;;;55.88;19.58;;;11.80;61.60;;;;;;4915222;29;20020;-90
2022/11/26 01:39:16;;;;;;;47.33;20.15;;;11.50;62.10;;;;;;4925102;29;20023;-82
2022/11/26 01:42:03;;;;;;;57.17;19.27;;;11.40;62.70;;;;;;4918117;29;20024;-83
2022/11/26 01:44:32;;;;;;;64.47;19.05;;;11.30;62.50;;;;;;4906124;29;20035;-80
2022/11/26 01:46:58;;;;;;;48.78;20.23;;;11.10;63.10;;;;;;4929663;29;20110;-87
2022/11/26 01:49:30;;;;;;;46.40;19.52;;;11.00;63.10;;;;;;4921538;29;20099;-83
2022/11/26 01:52:03;;;;;;;47.72;19.10;;;11.00;63.10;;;;;;4938125;29;20035;-82
2022/11/26 01:54:31;;;;;;;50.85;17.95;;;10.70;63.40;;;;;;4938329;29;20023;-84
2022/11/26 01:57:27;;;;;;;52.90;19.40;;;10.50;64.50;;;;;;4921511;29;20087;-82
2022/11/26 01:59:58;;;;;;;38.22;16.80;;;10.60;64.40;;;;;;4918794;29;20064;-83
2022/11/26 02:02:25;;;;;;;;;;;10.70;63.70;;;;;;4921580;29;20031;-83
2022/11/26 02:05:16;;;;;;;44.63;17.13;;;10.70;63.50;;;;;;4921223;29;20008;-83
2022/11/26 02:07:42;;;;;;;42.25;18.35;;;10.60;63.70;;;;;;4921206;29;20035;-83
2022/11/26 02:10:09;;;;;;;52.95;17.52;;;10.50;64.40;;;;;;4938183;29;20020;-82
2022/11/26 02:12:36;;;;;;;56.85;18.38;;;10.40;64.20;;;;;;4938182;29;20038;-83
2022/11/26 02:15:02;;;;;;;57.65;18.05;;;10.30;64.60;;;;;;4918906;29;20016;-81
2022/11/26 02:17:45;;;;;;;49.45;17.80;;;10.50;64.30;;;;;;4920744;29;20043;-83
2022/11/26 02:20:44;;;;;;;41.10;16.38;;;10.60;63.70;;;;;;4919788;29;20020;-82
2022/11/26 02:23:37;;;;;;;60.73;18.13;;;10.30;63.80;;;;;;4946204;29;20067;-82
2022/11/26 02:26:36;;;;;;;61.00;20.50;;;10.00;64.90;;;;;;4927464;29;20167;-82
2022/11/26 02:29:21;;;;;;;41.88;17.60;;;9.90;65.20;;;;;;4920322;29;20020;-81
2022/11/26 02:31:58;;;;;;;37.78;17.08;;;10.00;64.90;;;;;;4924820;29;20526;-82
2022/11/26 02:34:34;;;;;;;41.08;17.67;;;10.00;64.90;;;;;;4920600;29;20028;-83
2022/11/26 02:37:06;;;;;;;59.90;17.25;;;10.30;63.70;;;;;;4917234;29;20459;-83
2022/11/26 02:39:32;;;;;;;43.95;16.50;;;10.20;63.80;;;;;;4925296;29;20107;-82
2022/11/26 02:42:03;;;;;;;47.20;16.15;;;10.30;63.70;;;;;;4919851;29;20118;-81
2022/11/26 02:44:43;;;;;;;41.60;16.75;;;10.30;63.40;;;;;;4929171;29;20012;-82
2022/11/26 02:47:12;;;;;;;46.35;17.20;;;10.00;64.10;;;;;;4918674;29;20107;-84
2022/11/26 02:49:40;;;;;;;41.83;17.05;;;10.00;64.50;;;;;;4934875;29;20027;-89
2022/11/26 02:52:08;;;;;;;51.15;17.58;;;10.20;63.50;;;;;;4905133;29;20024;-83
2022/11/26 02:54:36;;;;;;;37.60;15.95;;;10.20;63.30;;;;;;4901226;29;20130;-83
2022/11/26 02:57:06;;;;;;;37.55;14.43;;;10.20;63.10;;;;;;4941242;29;20348;-83
2022/11/26 02:59:32;;;;;;;36.13;15.07;;;10.10;63.40;;;;;;4920505;29;20052;-83
2022/11/26 03:02:04;;;;;;;34.83;15.57;;;9.90;63.60;;;;;;4917031;29;20091;-82
2022/11/26 03:04:34;;;;;;;34.38;15.80;;;9.90;64.30;;;;;;4918128;29;20412;-81
2022/11/26 03:07:01;;;;;;;;;;;10.00;63.30;;;;;;4924628;29;20024;-83
2022/11/26 03:09:37;;;;;;;43.03;15.77;;;9.70;64.50;;;;;;4916666;29;19907;-82
2022/11/26 03:12:02;;;;;;;38.50;15.63;;;9.40;64.50;;;;;;4903253;29;20062;-82
2022/11/26 03:14:28;;;;;;;40.25;16.00;;;9.00;65.50;;;;;;4916783;29;20372;-82
2022/11/26 03:16:53;;;;;;;42.20;15.95;;;8.80;66.20;;;;;;4918997;29;20040;-84
2022/11/26 03:19:22;;;;;;;38.90;16.80;;;8.70;67.10;;;;;;4937035;29;20023;-82
2022/11/26 03:21:48;;;;;;;36.38;16.10;;;9.00;66.30;;;;;;4926773;29;20134;-82
2022/11/26 03:24:14;;;;;;;42.38;17.70;;;9.20;65.00;;;;;;4919682;29;20464;-88
2022/11/26 03:26:39;;;;;;;38.10;16.95;;;9.40;65.20;;;;;;4933431;29;20484;-82
2022/11/26 03:29:05;;;;;;;46.92;17.85;;;9.50;64.70;;;;;;4901312;29;20060;-83
2022/11/26 03:31:30;;;;;;;38.33;16.52;;;9.60;64.10;;;;;;4900629;29;20083;-83
2022/11/26 03:33:56;;;;;;;44.92;15.95;;;9.60;63.70;;;;;;4903634;29;20019;-84
2022/11/26 03:36:22;;;;;;;37.45;16.30;;;9.70;63.50;;;;;;4920852;29;20023;-82
2022/11/26 03:38:47;;;;;;;46.95;15.90;;;9.80;63.50;;;;;;4936753;29;20023;-83
2022/11/26 03:41:13;;;;;;;47.65;14.95;;;9.80;63.50;;;;;;4919069;29;20026;-83
2022/11/26 03:43:38;;;;;;;38.60;15.98;;;9.90;63.50;;;;;;4919167;29;20041;-87
2022/11/26 03:46:04;;;;;;;42.45;17.38;;;10.10;62.90;;;;;;4900212;29;20046;-84
2022/11/26 03:48:30;;;;;;;41.05;16.25;;;10.30;61.90;;;;;;4917595;29;20371;-82
2022/11/26 03:50:55;;;;;;;33.50;14.95;;;10.30;62.00;;;;;;4900217;29;20036;-82
2022/11/26 03:53:21;;;;;;;35.20;15.23;;;10.40;61.70;;;;;;4903472;29;20515;-84
2022/11/26 03:55:47;;;;;;;28.40;15.13;;;10.50;61.20;;;;;;4936572;29;20034;-83
2022/11/26 03:58:13;;;;;;;30.30;15.02;;;10.30;61.10;;;;;;4919147;29;20115;-81
2022/11/26 04:00:39;;;;;;;29.83;15.05;;;10.00;61.50;;;;;;4919248;29;20371;-83
2022/11/26 04:03:04;;;;;;;34.80;16.30;;;9.80;62.00;;;;;;4919552;29;20024;-83
2022/11/26 04:05:30;;;;;;;45.10;17.58;;;9.90;62.10;;;;;;4919540;29;20079;-84
2022/11/26 04:07:56;;;;;;;32.03;15.05;;;10.20;61.30;;;;;;4936446;29;20028;-83
2022/11/26 04:10:21;;;;;;;41.22;15.70;;;10.40;61.00;;;;;;4936552;29;20030;-84
2022/11/26 04:12:47;;;;;;;34.60;15.95;;;10.60;60.60;;;;;;4919197;29;20028;-86
2022/11/26 04:15:13;;;;;;;25.60;13.45;;;10.70;60.50;;;;;;4918848;29;20020;-84
2022/11/26 04:17:38;;;;;;;51.47;15.40;;;10.70;59.90;;;;;;4919101;29;20110;-83
2022/11/26 04:20:05;;;;;;;42.90;16.58;;;10.50;60.70;;;;;;4912993;29;20033;-84
2022/11/26 04:22:30;;;;;;;41.35;16.13;;;10.60;60.10;;;;;;4918852;29;20019;-83
2022/11/26 04:24:56;;;;;;;69.03;17.20;;;10.40;60.20;;;;;;4935944;29;20031;-83
2022/11/26 04:27:22;;;;;;;36.92;15.05;;;10.40;60.40;;;;;;4918060;29;20482;-83
2022/11/26 04:29:47;;;;;;;28.75;15.07;;;10.30;60.60;;;;;;4902405;29;20027;-84
2022/11/26 04:32:13;;;;;;;36.40;16.15;;;10.20;61.20;;;;;;4919248;29;20035;-83
2022/11/26 04:34:38;;;;;;;41.85;16.50;;;10.10;60.80;;;;;;4918466;29;20024;-83
2022/11/26 04:37:04;;;;;;;34.47;15.55;;;10.30;60.70;;;;;;4917773;29;20028;-83
2022/11/26 04:39:30;;;;;;;43.10;15.13;;;10.50;60.20;;;;;;4934955;29;20030;-83
2022/11/26 04:41:55;;;;;;;52.80;17.83;;;10.60;59.80;;;;;;4900380;29;20087;-82
2022/11/26 04:44:21;;;;;;;54.47;15.18;;;10.70;60.10;;;;;;4938303;29;20059;-84
2022/11/26 04:46:47;;;;;;;30.30;13.38;;;10.60;59.60;;;;;;4922289;29;20063;-83
2022/11/26 04:49:13;;;;;;;36.08;13.05;;;10.50;59.50;;;;;;4938989;29;20020;-82
2022/11/26 04:51:38;;;;;;;51.38;15.15;;;10.30;59.90;;;;;;4922061;29;20028;-83
2022/11/26 04:54:04;;;;;;;26.75;12.55;;;10.50;60.10;;;;;;4919575;29;20017;-83
2022/11/26 04:56:30;;;;;;;32.40;14.25;;;10.30;60.30;;;;;;4926274;29;20032;-84
2022/11/26 04:58:55;;;;;;;36.80;14.50;;;10.30;60.60;;;;;;4922564;29;20114;-83
2022/11/26 05:01:21;;;;;;;36.10;17.55;;;10.20;60.40;;;;;;4921754;29;20037;-83
2022/11/26 05:03:47;;;;;;;27.30;13.85;;;10.10;61.20;;;;;;4910730;29;20024;-84
2022/11/26 05:06:15;;;;;;;29.52;14.20;;;10.40;59.70;;;;;;4917327;29;20419;-84
2022/11/26 05:08:40;;;;;;;29.05;13.25;;;10.40;60.30;;;;;;4953554;29;20023;-84
2022/11/26 05:11:06;;;;;;;27.98;13.23;;;10.60;59.40;;;;;;4931373;29;20635;-84
2022/11/26 05:13:32;;;;;;;29.63;15.30;;;10.80;59.10;;;;;;4903180;29;20028;-83
2022/11/26 05:15:57;;;;;;;32.00;14.23;;;10.80;59.00;;;;;;4900734;29;20052;-82
2022/11/26 05:18:23;;;;;;;35.67;15.70;;;10.60;59.00;;;;;;4905543;29;20074;-83
2022/11/26 05:20:48;;;;;;;34.03;14.73;;;10.50;59.30;;;;;;4938780;29;20091;-84
2022/11/26 05:23:16;;;;;;;28.67;13.82;;;10.50;59.60;;;;;;4921488;29;20031;-84
2022/11/26 05:25:42;;;;;;;50.08;16.58;;;10.70;59.30;;;;;;4918021;29;20119;-84
2022/11/26 05:28:07;;;;;;;31.23;15.10;;;10.80;58.30;;;;;;4908849;29;20113;-83
2022/11/26 05:30:34;;;;;;;34.20;17.23;;;10.70;59.60;;;;;;4918054;29;20024;-84
2022/11/26 05:32:59;;;;;;;48.92;16.20;;;10.70;59.50;;;;;;4947510;29;20035;-83
2022/11/26 05:35:25;;;;;;;34.58;13.68;;;10.90;58.50;;;;;;4931141;29;20112;-83
2022/11/26 05:37:51;;;;;;;47.08;17.38;;;10.80;58.60;;;;;;4903083;29;20034;-83
2022/11/26 05:40:16;;;;;;;36.38;17.52;;;10.70;59.10;;;;;;4927340;29;20032;-84
2022/11/26 05:42:42;;;;;;;51.08;19.40;;;10.90;58.60;;;;;;4929607;29;20059;-87
2022/11/26 05:45:08;;;;;;;51.97;18.70;;;10.80;58.80;;;;;;4917604;29;20039;-84
2022/11/26 05:47:34;;;;;;;66.97;17.85;;;10.90;58.70;;;;;;4902311;29;20023;-84
2022/11/26 05:49:59;;;;;;;45.00;16.95;;;10.80;58.90;;;;;;4912906;29;20043;-85
2022/11/26 05:52:25;;;;;;;47.75;17.83;;;10.90;58.60;;;;;;4902508;29;20098;-88
2022/11/26 05:54:51;;;;;;;41.80;17.30;;;11.00;58.80;;;;;;4919394;29;20025;-84
2022/11/26 05:57:17;;;;;;;37.10;16.83;;;11.00;59.10;;;;;;4902506;29;20028;-82
2022/11/26 05:59:43;;;;;;;46.05;18.35;;;10.90;58.50;;;;;;4902534;29;20120;-82
2022/11/26 06:02:08;;;;;;;48.95;17.98;;;10.50;60.30;;;;;;4919330;29;20032;-84
2022/11/26 06:04:34;;;;;;;93.85;19.38;;;10.50;60.60;;;;;;4902486;29;20027;-83
2022/11/26 06:07:00;;;;;;;45.95;20.20;;;10.70;59.40;;;;;;4919909;29;20079;-86
2022/11/26 06:09:25;;;;;;;36.20;15.55;;;10.90;60.00;;;;;;4920084;29;20031;-83
2022/11/26 06:11:51;;;;;;;34.63;14.07;;;11.00;59.30;;;;;;4929240;29;20098;-83
2022/11/26 06:14:17;;;;;;;70.10;20.08;;;11.00;59.40;;;;;;4937178;29;20028;-82
2022/11/26 06:16:43;;;;;;;52.00;15.85;;;10.80;59.70;;;;;;4934075;29;20048;-83
2022/11/26 06:19:10;;;;;;;46.90;14.07;;;10.60;60.60;;;;;;4919082;29;20352;-82
2022/11/26 06:21:36;;;;;;;39.38;14.32;;;10.30;61.50;;;;;;4915553;29;20028;-83
2022/11/26 06:24:02;;;;;;;49.00;15.38;;;10.30;60.80;;;;;;4913164;29;20024;-84
2022/11/26 06:26:27;;;;;;;66.07;16.48;;;10.30;61.30;;;;;;4930191;29;20514;-83
2022/11/26 06:28:53;;;;;;;69.75;16.33;;;10.50;60.80;;;;;;4916369;29;20042;-86
2022/11/26 06:31:19;;;;;;;46.13;16.08;;;10.80;60.50;;;;;;4901980;29;20024;-82
2022/11/26 06:33:45;;;;;;;36.92;16.55;;;11.10;59.80;;;;;;4919528;29;20364;-83
2022/11/26 06:36:10;;;;;;;38.15;14.93;;;11.30;59.70;;;;;;4915455;29;20110;-86
2022/11/26 06:38:36;;;;;;;25.30;13.70;;;11.40;59.10;;;;;;4923001;29;20168;-84
2022/11/26 06:41:07;;;;;;;32.70;14.90;;;11.50;58.70;;;;;;4931291;29;20034;-87
2022/11/26 06:43:33;;;;;;;40.75;16.95;;;11.60;58.80;;;;;;4905824;29;20036;-86
2022/11/26 06:46:08;;;;;;;34.58;14.73;;;11.70;58.70;;;;;;4913473;29;20038;-82
2022/11/26 06:48:35;;;;;;;33.22;16.02;;;11.70;58.60;;;;;;4920183;29;20126;-86
2022/11/26 06:51:09;;;;;;;62.97;16.73;;;11.80;58.60;;;;;;4937032;29;20027;-87
2022/11/26 06:53:35;;;;;;;89.55;20.17;;;11.60;58.20;;;;;;4912877;29;20076;-83
2022/11/26 06:56:07;;;;;;;49.60;18.00;;;11.60;58.80;;;;;;4913403;29;20020;-83
2022/11/26 06:58:33;;;;;;;57.03;17.95;;;11.80;58.40;;;;;;4912031;29;20044;-84
2022/11/26 07:00:59;;;;;;;47.17;16.50;;;11.80;58.30;;;;;;4935821;29;20055;-83
2022/11/26 07:03:24;;;;;;;39.58;16.65;;;11.70;58.50;;;;;;4919731;29;20028;-82
2022/11/26 07:05:50;;;;;;;59.78;18.48;;;11.70;58.30;;;;;;4942356;29;20044;-83
2022/11/26 07:08:16;;;;;;;44.38;16.17;;;11.80;58.30;;;;;;4916223;29;20102;-82
2022/11/26 07:10:42;;;;;;;62.58;18.90;;;11.70;58.30;;;;;;4917397;29;20031;-83
2022/11/26 07:13:08;;;;;;;38.40;17.15;;;11.50;58.40;;;;;;4943698;29;20027;-85
2022/11/26 07:15:33;;;;;;;49.83;23.77;;;11.50;58.70;;;;;;4936562;28;20040;-82
2022/11/26 07:17:59;;;;;;;53.78;18.05;;;11.70;58.20;;;;;;4919270;29;20015;-83
2022/11/26 07:20:25;;;;;;;84.90;40.97;;;11.60;58.70;;;;;;4913418;29;20020;-84
2022/11/26 07:22:52;;;;;;;37.17;19.25;;;11.80;58.10;;;;;;4912282;29;20027;-83
2022/11/26 07:25:18;;;;;;;123.68;58.40;;;11.70;58.20;;;;;;4919316;29;20130;-82
2022/11/26 07:27:44;;;;;;;51.58;26.92;;;11.60;58.50;;;;;;4919377;29;20106;-80
2022/11/26 07:30:10;;;;;;;31.77;17.83;;;11.10;59.20;;;;;;4919501;29;20028;-82
2022/11/26 07:32:36;;;;;;;28.45;14.85;;;11.10;59.70;;;;;;4919208;29;20035;-82
2022/11/26 07:35:02;;;;;;;36.22;20.90;;;11.10;59.20;;;;;;4919410;29;20028;-84
2022/11/26 07:37:28;;;;;;;28.13;16.88;;;11.00;59.80;;;;;;4919731;29;20476;-83
2022/11/26 07:39:54;;;;;;;32.35;17.17;;;11.20;59.40;;;;;;4918704;29;20023;-86
2022/11/26 07:42:20;;;;;;;22.83;14.00;;;11.30;59.10;;;;;;4919446;29;20028;-82
2022/11/26 07:44:46;;;;;;;23.95;13.48;;;11.20;58.90;;;;;;4918207;29;20533;-80
2022/11/26 07:47:11;;;;;;;25.77;14.30;;;10.70;60.30;;;;;;4918576;29;20042;-88
2022/11/26 07:49:37;;;;;;;25.02;13.07;;;10.60;60.80;;;;;;4919124;29;20023;-89
2022/11/26 07:52:03;;;;;;;24.67;14.48;;;10.80;60.90;;;;;;4935268;29;20027;-84
2022/11/26 07:54:28;;;;;;;23.30;13.05;;;11.30;59.40;;;;;;4918035;29;20016;-82
2022/11/26 07:56:54;;;;;;;22.80;12.80;;;11.20;59.70;;;;;;4935409;29;20070;-86
2022/11/26 07:59:21;;;;;;;25.55;14.07;;;11.40;59.90;;;;;;4918544;29;20103;-80
2022/11/26 08:01:47;;;;;;;23.55;13.15;;;11.50;58.90;;;;;;4918561;29;20019;-82
2022/11/26 08:04:12;;;;;;;32.03;17.77;;;11.60;59.10;;;;;;4918417;29;20031;-82
2022/11/26 08:06:38;;;;;;;28.35;17.05;;;11.90;58.40;;;;;;4921760;29;20059;-83
2022/11/26 08:09:04;;;;;;;27.83;16.90;;;12.20;58.10;;;;;;4918676;29;20111;-86
2022/11/26 08:11:31;;;;;;;28.45;15.38;;;12.30;57.90;;;;;;4931767;29;20024;-82
2022/11/26 08:14:18;;;;;;;28.63;15.18;;;12.40;57.30;;;;;;4918575;29;20111;-81
2022/11/26 08:16:44;;;;;;;27.75;13.90;;;12.40;57.70;;;;;;4918531;29;20040;-82
2022/11/26 08:19:12;;;;;;;23.27;13.15;;;12.50;57.60;;;;;;4922242;29;20030;-82
2022/11/26 08:21:38;;;;;;;24.80;14.02;;;12.50;57.30;;;;;;4922911;29;20058;-83
2022/11/26 08:24:05;;;;;;;39.63;20.75;;;12.50;57.40;;;;;;4939984;29;20022;-84
2022/11/26 08:26:31;;;;;;;25.05;13.93;;;12.80;57.30;;;;;;4921895;29;20027;-81
2022/11/26 08:28:58;;;;;;;26.00;14.65;;;12.80;57.00;;;;;;4922770;29;20016;-82
2022/11/26 08:31:26;;;;;;;26.80;14.05;;;12.90;56.20;;;;;;4922143;29;20033;-85
2022/11/26 08:33:54;;;;;;;24.10;13.93;;;12.70;56.50;;;;;;4922049;29;20023;-84
2022/11/26 08:36:20;;;;;;;26.30;14.95;;;12.40;57.40;;;;;;4939240;29;20066;-86
2022/11/26 08:38:45;;;;;;;31.20;17.50;;;12.40;58.00;;;;;;4938899;29;20058;-81
2022/11/26 08:41:12;;;;;;;27.85;15.85;;;12.70;57.50;;;;;;4938968;29;20036;-82
2022/11/26 08:43:39;;;;;;;35.45;16.65;;;12.70;56.90;;;;;;4921782;29;20035;-82
2022/11/26 08:46:05;;;;;;;28.70;16.02;;;12.50;58.20;;;;;;4921946;29;20063;-86
2022/11/26 08:48:31;;;;;;;30.88;15.52;;;12.60;57.70;;;;;;4921846;29;20531;-82
2022/11/26 08:51:02;;;;;;;26.95;16.08;;;12.80;57.90;;;;;;4921942;29;20027;-81
2022/11/26 08:53:29;;;;;;;27.50;16.83;;;12.90;57.70;;;;;;4941252;29;20020;-81
2022/11/26 08:56:05;;;;;;;26.98;15.60;;;12.60;57.80;;;;;;4921217;29;20023;-80
2022/11/26 08:58:40;;;;;;;30.63;16.30;;;12.50;58.70;;;;;;4921389;29;20024;-81
2022/11/26 09:01:26;;;;;;;26.92;15.63;;;12.40;59.50;;;;;;4921367;29;20118;-82
2022/11/26 09:03:57;;;;;;;26.02;15.18;;;12.60;59.60;;;;;;4921082;29;20106;-86
2022/11/26 09:06:26;;;;;;;27.85;15.52;;;12.60;59.70;;;;;;4920998;29;20197;-83
2022/11/26 09:11:39;;;;;;;30.15;16.10;;;12.60;59.20;;;;;;4938722;29;20102;-87
2022/11/26 09:14:05;;;;;;;131.70;92.15;;;12.60;60.30;;;;;;4921059;29;20023;-83
2022/11/26 09:16:31;;;;;;;76.20;47.10;;;12.60;60.40;;;;;;4921282;29;20451;-83
2022/11/26 09:18:59;;;;;;;38.95;21.10;;;12.20;61.70;;;;;;4921892;29;20118;-88
2022/11/26 09:21:25;;;;;;;36.72;21.02;;;12.50;61.90;;;;;;4921906;29;20463;-82
2022/11/26 09:23:50;;;;;;;66.90;43.92;;;12.80;61.40;;;;;;4938419;29;20035;-86
2022/11/26 09:26:20;;;;;;;79.40;59.42;;;13.00;61.20;;;;;;4922345;29;20039;-83
2022/11/26 09:28:46;;;;;;;50.13;34.78;;;13.10;61.70;;;;;;4920887;29;20024;-82
2022/11/26 09:31:12;;;;;;;36.47;23.23;;;13.30;61.80;;;;;;4921376;29;20054;-88
2022/11/26 09:33:38;;;;;;;37.25;22.08;;;13.70;61.00;;;;;;4921334;29;20456;-81
2022/11/26 09:36:06;;;;;;;70.07;53.40;;;14.20;59.80;;;;;;4921705;29;20051;-83
2022/11/26 09:38:32;;;;;;;36.00;22.48;;;14.50;59.40;;;;;;4938407;29;20030;-88
2022/11/26 09:41:06;;;;;;;40.35;27.83;;;14.60;58.70;;;;;;4921624;29;20027;-84
2022/11/26 09:43:56;;;;;;;332.58;234.95;;;14.60;59.70;;;;;;4920980;29;20032;-82
2022/11/26 09:46:29;;;;;;;103.90;87.43;;;15.00;58.90;;;;;;4917602;29;20047;-81
2022/11/26 09:48:59;;;;;;;41.80;31.77;;;15.20;58.20;;;;;;4918317;29;20032;-83
2022/11/26 09:51:26;;;;;;;41.30;29.77;;;15.40;57.50;;;;;;4918146;29;20024;-83
2022/11/26 09:53:54;;;;;;;37.33;21.70;;;15.00;58.20;;;;;;4918214;29;20028;-88
2022/11/26 09:56:24;;;;;;;33.25;20.17;;;15.00;57.90;;;;;;4918070;29;20735;-81
2022/11/26 09:58:56;;;;;;;35.63;20.85;;;15.30;57.80;;;;;;4917805;29;20028;-82
2022/11/26 10:01:23;;;;;;;31.67;19.63;;;15.20;57.80;;;;;;4917864;29;20028;-81
2022/11/26 10:03:50;;;;;;;37.50;22.95;;;15.20;57.80;;;;;;4918821;29;20341;-83
2022/11/26 10:06:51;;;;;;;39.53;24.95;;;15.50;57.30;;;;;;4917736;29;20047;-82
2022/11/26 10:09:35;;;;;;;31.95;19.98;;;15.40;57.50;;;;;;4917674;29;20028;-82
2022/11/26 10:12:39;;;;;;;31.73;19.45;;;15.30;58.00;;;;;;4917883;29;20027;-83
2022/11/26 10:15:37;;;;;;;36.45;23.23;;;15.00;58.90;;;;;;4933735;29;20032;-83
2022/11/26 10:18:40;;;;;;;32.67;19.67;;;15.30;58.70;;;;;;4917524;29;20036;-83
2022/11/26 10:21:19;;;;;;;31.85;20.27;;;15.80;58.20;;;;;;4933654;29;20021;-82
2022/11/26 10:23:59;;;;;;;39.17;25.10;;;16.00;57.80;;;;;;4917595;29;20028;-82
2022/11/26 10:26:35;;;;;;;34.15;20.45;;;16.20;57.30;;;;;;4918367;29;20104;-90
2022/11/26 10:29:18;;;;;;;31.38;19.60;;;16.00;57.20;;;;;;4916057;29;20028;-80
2022/11/26 10:31:46;;;;;;;32.20;20.52;;;15.20;58.40;;;;;;4919651;29;20487;-88
2022/11/26 10:34:17;;;;;;;36.75;20.92;;;14.70;60.20;;;;;;4919609;29;20028;-82
2022/11/26 10:36:45;;;;;;;47.53;21.48;;;14.70;59.10;;;;;;4920021;29;20027;-84
2022/11/26 10:39:19;;;;;;;40.10;22.17;;;14.90;59.40;;;;;;4937157;29;20019;-82
2022/11/26 10:41:45;;;;;;;33.00;21.20;;;15.30;58.70;;;;;;4917038;29;20035;-85
2022/11/26 10:44:47;;;;;;;44.75;24.15;;;15.00;58.70;;;;;;4951815;29;20038;-81
2022/11/26 10:47:25;;;;;;;37.78;23.63;;;14.30;60.90;;;;;;4853310;29;20078;-82
2022/11/26 10:49:53;;;;;;;36.33;24.00;;;14.40;61.20;;;;;;4843731;29;20041;-81
2022/11/26 10:52:23;;;;;;;40.28;23.33;;;14.90;60.80;;;;;;4855096;29;20036;-80
2022/11/26 10:55:18;;;;;;;33.88;21.98;;;15.10;60.20;;;;;;4862343;29;20070;-82
2022/11/26 10:58:16;;;;;;;41.47;25.30;;;15.30;60.10;;;;;;4877731;29;20093;-82
2022/11/26 11:00:47;;;;;;;98.65;88.63;;;15.40;60.10;;;;;;4866168;29;20119;-85
2022/11/26 11:03:29;;;;;;;37.47;23.40;;;15.40;60.40;;;;;;4861121;29;20036;-85
2022/11/26 11:06:19;;;;;;;37.88;22.90;;;15.70;59.70;;;;;;4878110;29;20112;-85
2022/11/26 11:08:47;;;;;;;38.03;24.95;;;16.20;58.80;;;;;;4878265;29;20136;-80
2022/11/26 11:11:30;;;;;;;40.33;27.83;;;16.50;58.20;;;;;;4862337;29;20051;-82
2022/11/26 11:13:56;;;;;;;37.50;24.85;;;16.40;58.00;;;;;;4878283;29;20132;-84
2022/11/26 11:16:36;;;;;;;38.88;24.85;;;16.50;58.50;;;;;;4862235;29;20049;-82
2022/11/26 11:19:10;;;;;;;42.65;30.95;;;16.50;58.30;;;;;;4877601;29;20136;-82
2022/11/26 11:21:38;;;;;;;51.50;32.55;;;16.40;58.20;;;;;;4898681;29;20042;-80
2022/11/26 11:24:12;;;;;;;41.15;27.35;;;16.10;59.30;;;;;;4914833;29;20031;-85
2022/11/26 11:26:42;;;;;;;40.60;26.75;;;16.20;58.80;;;;;;4908378;29;20122;-81
2022/11/26 11:29:22;;;;;;;67.00;55.72;;;16.20;59.00;;;;;;4919013;29;20031;-81
2022/11/26 11:31:47;;;;;;;41.80;27.80;;;16.40;58.40;;;;;;4918296;29;20039;-81
2022/11/26 11:34:26;;;;;;;38.30;23.52;;;16.40;58.50;;;;;;4577426;29;10000289;-82
2022/11/26 11:37:17;;;;;;;44.78;30.00;;;16.30;58.30;;;;;;4916844;29;20368;-89
2022/11/26 11:39:43;;;;;;;40.88;24.15;;;16.10;58.90;;;;;;4924752;29;20031;-85
2022/11/26 11:42:20;;;;;;;42.55;24.83;;;15.80;58.90;;;;;;4916760;29;20015;-82
2022/11/26 11:44:50;;;;;;;47.83;32.92;;;15.50;59.60;;;;;;4913539;29;20028;-82
2022/11/26 11:47:34;;;;;;;39.88;23.85;;;15.20;60.60;;;;;;4916940;29;20382;-80
2022/11/26 11:50:57;;;;;;;46.15;24.45;;;15.10;60.20;;;;;;4926166;29;20030;-89
2022/11/26 11:53:43;;;;;;;43.95;23.58;;;14.60;61.50;;;;;;4857038;29;20033;-81
2022/11/26 11:56:24;;;;;;;41.95;23.73;;;14.30;62.20;;;;;;4853829;29;20053;-83
2022/11/26 11:59:16;;;;;;;37.40;22.15;;;14.20;62.00;;;;;;4856256;29;20041;-83
2022/11/26 12:01:53;;;;;;;38.83;22.90;;;14.30;62.20;;;;;;4857226;29;20472;-81
2022/11/26 12:04:42;;;;;;;42.95;23.83;;;14.30;62.00;;;;;;4857321;29;20524;-83
2022/11/26 12:07:25;;;;;;;42.58;27.40;;;14.30;62.00;;;;;;4851395;29;20037;-80
2022/11/26 12:10:03;;;;;;;40.40;26.60;;;14.20;62.20;;;;;;4853212;29;20400;-79
2022/11/26 12:12:38;;;;;;;39.72;26.13;;;14.20;62.60;;;;;;4861346;29;20425;-83
2022/11/26 12:15:12;;;;;;;43.38;26.88;;;14.30;62.10;;;;;;4861510;29;20021;-92
2022/11/26 12:17:53;;;;;;;39.75;24.90;;;14.40;62.10;;;;;;4846746;29;20075;-84
2022/11/26 12:20:24;;;;;;;78.05;51.97;;;14.40;61.90;;;;;;4842095;29;20033;-79
2022/11/26 12:23:18;;;;;;;51.78;36.95;;;14.20;62.00;;;;;;4842615;29;20056;-92
2022/11/26 12:25:49;;;;;;;52.08;38.28;;;14.20;62.60;;;;;;4883109;29;20031;-91
2022/11/26 12:28:20;;;;;;;42.00;24.80;;;14.50;61.90;;;;;;4927241;29;20160;-81
2022/11/26 12:31:17;;;;;;;43.47;28.08;;;14.50;61.70;;;;;;4914074;29;20087;-81
2022/11/26 12:34:01;;;;;;;64.93;45.83;;;14.70;61.30;;;;;;4870250;29;20030;-81
2022/11/26 12:36:42;;;;;;;36.70;22.40;;;14.60;61.70;;;;;;4833593;29;20477;-80
2022/11/26 12:39:30;;;;;;;43.38;27.88;;;14.60;61.30;;;;;;4846694;29;20041;-93
2022/11/26 12:42:22;;;;;;;40.35;26.60;;;14.50;62.00;;;;;;4875561;29;20029;-95
2022/11/26 12:44:50;;;;;;;81.10;54.60;;;14.70;61.50;;;;;;4845688;29;20044;-81
2022/11/26 12:47:31;;;;;;;58.08;33.28;;;14.80;61.10;;;;;;4822776;29;20042;-82
2022/11/26 12:50:24;;;;;;;68.90;40.42;;;14.70;61.70;;;;;;4834947;29;20441;-80